sensor_id;sensor_type;location;lat;lon;timestamp;P1;durP1;ratioP1;P2;durP2;ratioP2
71626;SDS011;59475;52.464;13.590;2022-07-29T00:01:28;3.73;;;2.20;;
71626;SDS011;59475;52.464;13.590;2022-07-29T00:03:53;3.80;;;2.23;;
71626;SDS011;59475;52.464;13.590;2022-07-29T00:06:18;7.10;;;2.25;;
71626;SDS011;59475;52.464;13.590;2022-07-29T00:08:45;6.33;;;2.70;;
71626;SDS011;59475;52.464;13.590;2022-07-29T00:11:11;3.37;;;2.30;;
71626;SDS011;59475;52.464;13.590;2022-07-29T00:13:36;4.37;;;2.50;;
71626;SDS011;59475;52.464;13.590;2022-07-29T00:16:01;5.13;;;2.50;;
71626;SDS011;59475;52.464;13.590;2022-07-29T00:18:27;3.87;;;2.47;;
71626;SDS011;59475;52.464;13.590;2022-07-29T00:20:52;5.70;;;2.47;;
71626;SDS011;59475;52.464;13.590;2022-07-29T00:23:18;4.85;;;2.30;;
71626;SDS011;59475;52.464;13.590;2022-07-29T00:25:43;2.83;;;2.03;;
71626;SDS011;59475;52.464;13.590;2022-07-29T00:28:08;6.30;;;2.30;;
71626;SDS011;59475;52.464;13.590;2022-07-29T00:30:34;4.20;;;2.20;;
71626;SDS011;59475;52.464;13.590;2022-07-29T00:32:59;3.93;;;2.20;;
71626;SDS011;59475;52.464;13.590;2022-07-29T00:35:24;4.47;;;2.47;;
71626;SDS011;59475;52.464;13.590;2022-07-29T00:38:08;4.63;;;2.63;;
71626;SDS011;59475;52.464;13.590;2022-07-29T00:40:34;4.53;;;2.53;;
71626;SDS011;59475;52.464;13.590;2022-07-29T00:42:59;4.33;;;2.50;;
71626;SDS011;59475;52.464;13.590;2022-07-29T00:45:25;4.13;;;2.73;;
71626;SDS011;59475;52.464;13.590;2022-07-29T00:47:50;6.30;;;2.30;;
71626;SDS011;59475;52.464;13.590;2022-07-29T00:50:16;4.63;;;2.70;;
71626;SDS011;59475;52.464;13.590;2022-07-29T00:52:42;4.77;;;2.60;;
71626;SDS011;59475;52.464;13.590;2022-07-29T00:55:11;5.22;;;2.38;;
71626;SDS011;59475;52.464;13.590;2022-07-29T00:57:37;4.82;;;2.70;;
71626;SDS011;59475;52.464;13.590;2022-07-29T01:00:03;7.70;;;3.10;;
71626;SDS011;59475;52.464;13.590;2022-07-29T01:02:30;5.68;;;2.60;;
71626;SDS011;59475;52.464;13.590;2022-07-29T01:04:55;7.87;;;2.80;;
71626;SDS011;59475;52.464;13.590;2022-07-29T01:07:22;5.40;;;2.30;;
71626;SDS011;59475;52.464;13.590;2022-07-29T01:09:49;4.60;;;2.78;;
71626;SDS011;59475;52.464;13.590;2022-07-29T01:12:19;5.47;;;2.33;;
71626;SDS011;59475;52.464;13.590;2022-07-29T01:14:48;5.03;;;2.72;;
71626;SDS011;59475;52.464;13.590;2022-07-29T01:17:19;5.60;;;2.63;;
71626;SDS011;59475;52.464;13.590;2022-07-29T01:25:40;6.57;;;3.35;;
71626;SDS011;59475;52.464;13.590;2022-07-29T01:28:46;6.63;;;3.33;;
71626;SDS011;59475;52.464;13.590;2022-07-29T01:31:30;4.23;;;2.60;;
71626;SDS011;59475;52.464;13.590;2022-07-29T01:34:01;5.13;;;2.70;;
71626;SDS011;59475;52.464;13.590;2022-07-29T01:36:33;3.97;;;2.60;;
71626;SDS011;59475;52.464;13.590;2022-07-29T01:41:49;6.28;;;2.78;;
71626;SDS011;59475;52.464;13.590;2022-07-29T01:44:30;5.03;;;2.87;;
71626;SDS011;59475;52.464;13.590;2022-07-29T01:47:00;5.82;;;3.10;;
71626;SDS011;59475;52.464;13.590;2022-07-29T01:49:31;8.43;;;3.40;;
71626;SDS011;59475;52.464;13.590;2022-07-29T01:52:03;4.25;;;2.90;;
71626;SDS011;59475;52.464;13.590;2022-07-29T01:54:43;4.90;;;2.67;;
71626;SDS011;59475;52.464;13.590;2022-07-29T01:57:14;7.23;;;3.10;;
71626;SDS011;59475;52.464;13.590;2022-07-29T01:59:45;13.23;;;3.47;;
71626;SDS011;59475;52.464;13.590;2022-07-29T02:02:13;10.25;;;3.67;;
71626;SDS011;59475;52.464;13.590;2022-07-29T02:04:41;5.40;;;3.60;;
71626;SDS011;59475;52.464;13.590;2022-07-29T02:07:09;6.43;;;3.00;;
71626;SDS011;59475;52.464;13.590;2022-07-29T02:09:37;6.07;;;2.77;;
71626;SDS011;59475;52.464;13.590;2022-07-29T02:12:05;4.28;;;2.67;;
71626;SDS011;59475;52.464;13.590;2022-07-29T02:14:34;7.15;;;3.42;;
71626;SDS011;59475;52.464;13.590;2022-07-29T02:17:03;5.25;;;3.03;;
71626;SDS011;59475;52.464;13.590;2022-07-29T02:19:29;3.70;;;2.90;;
71626;SDS011;59475;52.464;13.590;2022-07-29T02:21:57;7.25;;;2.85;;
71626;SDS011;59475;52.464;13.590;2022-07-29T02:24:24;5.13;;;2.90;;
71626;SDS011;59475;52.464;13.590;2022-07-29T02:26:51;4.43;;;2.90;;
71626;SDS011;59475;52.464;13.590;2022-07-29T02:29:19;7.00;;;3.00;;
71626;SDS011;59475;52.464;13.590;2022-07-29T02:31:47;4.82;;;3.00;;
71626;SDS011;59475;52.464;13.590;2022-07-29T02:34:14;6.38;;;3.10;;
71626;SDS011;59475;52.464;13.590;2022-07-29T02:36:41;7.38;;;2.83;;
71626;SDS011;59475;52.464;13.590;2022-07-29T02:39:08;4.30;;;2.90;;
71626;SDS011;59475;52.464;13.590;2022-07-29T02:41:43;5.80;;;3.23;;
71626;SDS011;59475;52.464;13.590;2022-07-29T02:44:15;9.70;;;3.05;;
71626;SDS011;59475;52.464;13.590;2022-07-29T02:46:45;5.93;;;2.60;;
71626;SDS011;59475;52.464;13.590;2022-07-29T02:52:00;5.15;;;3.10;;
71626;SDS011;59475;52.464;13.590;2022-07-29T02:54:37;10.20;;;2.97;;
71626;SDS011;59475;52.464;13.590;2022-07-29T02:57:08;6.25;;;2.70;;
71626;SDS011;59475;52.464;13.590;2022-07-29T02:59:39;4.97;;;2.80;;
71626;SDS011;59475;52.464;13.590;2022-07-29T03:02:06;4.90;;;2.88;;
71626;SDS011;59475;52.464;13.590;2022-07-29T03:04:34;5.85;;;2.90;;
71626;SDS011;59475;52.464;13.590;2022-07-29T03:07:03;5.17;;;3.10;;
71626;SDS011;59475;52.464;13.590;2022-07-29T03:09:30;5.68;;;2.72;;
71626;SDS011;59475;52.464;13.590;2022-07-29T03:11:55;5.82;;;2.92;;
71626;SDS011;59475;52.464;13.590;2022-07-29T03:14:21;5.15;;;2.83;;
71626;SDS011;59475;52.464;13.590;2022-07-29T03:16:48;4.23;;;2.47;;
71626;SDS011;59475;52.464;13.590;2022-07-29T03:19:14;4.00;;;2.92;;
71626;SDS011;59475;52.464;13.590;2022-07-29T03:21:41;7.97;;;3.13;;
71626;SDS011;59475;52.464;13.590;2022-07-29T03:24:06;7.37;;;3.00;;
71626;SDS011;59475;52.464;13.590;2022-07-29T03:26:31;7.40;;;2.90;;
71626;SDS011;59475;52.464;13.590;2022-07-29T03:28:57;5.20;;;3.40;;
71626;SDS011;59475;52.464;13.590;2022-07-29T03:31:22;6.00;;;3.20;;
71626;SDS011;59475;52.464;13.590;2022-07-29T03:33:47;5.83;;;2.87;;
71626;SDS011;59475;52.464;13.590;2022-07-29T03:36:13;4.97;;;3.20;;
71626;SDS011;59475;52.464;13.590;2022-07-29T03:38:38;6.90;;;3.00;;
71626;SDS011;59475;52.464;13.590;2022-07-29T03:41:07;4.60;;;2.70;;
71626;SDS011;59475;52.464;13.590;2022-07-29T03:43:35;6.38;;;3.28;;
71626;SDS011;59475;52.464;13.590;2022-07-29T03:46:03;5.60;;;2.97;;
71626;SDS011;59475;52.464;13.590;2022-07-29T03:48:30;5.47;;;3.13;;
71626;SDS011;59475;52.464;13.590;2022-07-29T03:50:58;6.03;;;3.05;;
71626;SDS011;59475;52.464;13.590;2022-07-29T03:53:24;9.17;;;3.13;;
71626;SDS011;59475;52.464;13.590;2022-07-29T03:55:50;9.40;;;2.50;;
71626;SDS011;59475;52.464;13.590;2022-07-29T03:58:19;5.90;;;3.25;;
71626;SDS011;59475;52.464;13.590;2022-07-29T04:00:45;5.00;;;2.90;;
71626;SDS011;59475;52.464;13.590;2022-07-29T04:03:11;6.88;;;3.00;;
71626;SDS011;59475;52.464;13.590;2022-07-29T04:05:37;6.40;;;3.17;;
71626;SDS011;59475;52.464;13.590;2022-07-29T04:08:04;3.60;;;2.83;;
71626;SDS011;59475;52.464;13.590;2022-07-29T04:10:30;6.35;;;3.17;;
71626;SDS011;59475;52.464;13.590;2022-07-29T04:12:55;5.80;;;3.37;;
71626;SDS011;59475;52.464;13.590;2022-07-29T04:15:21;5.82;;;2.80;;
71626;SDS011;59475;52.464;13.590;2022-07-29T04:17:46;9.20;;;2.73;;
71626;SDS011;59475;52.464;13.590;2022-07-29T04:20:11;5.50;;;2.50;;
71626;SDS011;59475;52.464;13.590;2022-07-29T04:22:38;5.97;;;2.60;;
71626;SDS011;59475;52.464;13.590;2022-07-29T04:25:04;4.70;;;2.80;;
71626;SDS011;59475;52.464;13.590;2022-07-29T04:27:30;5.07;;;2.75;;
71626;SDS011;59475;52.464;13.590;2022-07-29T04:29:55;6.10;;;2.83;;
71626;SDS011;59475;52.464;13.590;2022-07-29T04:32:21;8.73;;;3.08;;
71626;SDS011;59475;52.464;13.590;2022-07-29T04:34:46;4.47;;;2.73;;
71626;SDS011;59475;52.464;13.590;2022-07-29T04:37:12;7.68;;;3.30;;
71626;SDS011;59475;52.464;13.590;2022-07-29T04:39:38;5.00;;;2.97;;
71626;SDS011;59475;52.464;13.590;2022-07-29T04:42:03;6.00;;;3.13;;
71626;SDS011;59475;52.464;13.590;2022-07-29T04:44:29;6.57;;;3.22;;
71626;SDS011;59475;52.464;13.590;2022-07-29T04:46:54;6.70;;;2.50;;
71626;SDS011;59475;52.464;13.590;2022-07-29T04:49:20;6.47;;;2.97;;
71626;SDS011;59475;52.464;13.590;2022-07-29T04:51:45;5.65;;;2.97;;
71626;SDS011;59475;52.464;13.590;2022-07-29T04:54:10;4.80;;;2.50;;
71626;SDS011;59475;52.464;13.590;2022-07-29T04:56:36;5.87;;;2.63;;
71626;SDS011;59475;52.464;13.590;2022-07-29T04:59:01;4.33;;;2.50;;
71626;SDS011;59475;52.464;13.590;2022-07-29T05:01:27;4.20;;;3.07;;
71626;SDS011;59475;52.464;13.590;2022-07-29T05:03:52;5.20;;;2.67;;
71626;SDS011;59475;52.464;13.590;2022-07-29T05:06:17;7.50;;;2.83;;
71626;SDS011;59475;52.464;13.590;2022-07-29T05:08:43;7.37;;;2.77;;
71626;SDS011;59475;52.464;13.590;2022-07-29T05:11:08;4.03;;;2.80;;
71626;SDS011;59475;52.464;13.590;2022-07-29T05:13:33;5.57;;;3.03;;
71626;SDS011;59475;52.464;13.590;2022-07-29T05:15:59;9.37;;;3.00;;
71626;SDS011;59475;52.464;13.590;2022-07-29T05:18:25;4.10;;;2.47;;
71626;SDS011;59475;52.464;13.590;2022-07-29T05:20:50;9.23;;;2.80;;
71626;SDS011;59475;52.464;13.590;2022-07-29T05:23:16;5.25;;;2.83;;
71626;SDS011;59475;52.464;13.590;2022-07-29T05:25:41;3.70;;;2.47;;
71626;SDS011;59475;52.464;13.590;2022-07-29T05:28:07;4.13;;;2.37;;
71626;SDS011;59475;52.464;13.590;2022-07-29T05:30:32;5.38;;;2.78;;
71626;SDS011;59475;52.464;13.590;2022-07-29T05:32:57;6.10;;;2.60;;
71626;SDS011;59475;52.464;13.590;2022-07-29T05:35:23;8.97;;;2.90;;
71626;SDS011;59475;52.464;13.590;2022-07-29T05:37:48;4.03;;;2.30;;
71626;SDS011;59475;52.464;13.590;2022-07-29T05:40:13;4.20;;;2.30;;
71626;SDS011;59475;52.464;13.590;2022-07-29T05:42:39;5.37;;;2.83;;
71626;SDS011;59475;52.464;13.590;2022-07-29T05:45:04;3.37;;;2.37;;
71626;SDS011;59475;52.464;13.590;2022-07-29T05:47:30;4.77;;;2.53;;
71626;SDS011;59475;52.464;13.590;2022-07-29T05:49:55;6.40;;;3.10;;
71626;SDS011;59475;52.464;13.590;2022-07-29T05:52:21;5.77;;;2.50;;
71626;SDS011;59475;52.464;13.590;2022-07-29T05:54:47;5.80;;;2.70;;
71626;SDS011;59475;52.464;13.590;2022-07-29T05:57:19;5.55;;;2.63;;
71626;SDS011;59475;52.464;13.590;2022-07-29T05:59:45;4.50;;;2.03;;
71626;SDS011;59475;52.464;13.590;2022-07-29T06:02:12;5.20;;;2.78;;
71626;SDS011;59475;52.464;13.590;2022-07-29T06:04:37;6.13;;;2.97;;
71626;SDS011;59475;52.464;13.590;2022-07-29T06:07:03;5.70;;;2.57;;
71626;SDS011;59475;52.464;13.590;2022-07-29T06:09:29;5.53;;;2.50;;
71626;SDS011;59475;52.464;13.590;2022-07-29T06:11:54;4.50;;;2.70;;
71626;SDS011;59475;52.464;13.590;2022-07-29T06:14:20;3.38;;;2.30;;
71626;SDS011;59475;52.464;13.590;2022-07-29T06:16:45;5.90;;;2.90;;
71626;SDS011;59475;52.464;13.590;2022-07-29T06:19:11;3.37;;;2.47;;
71626;SDS011;59475;52.464;13.590;2022-07-29T06:21:36;4.70;;;2.40;;
71626;SDS011;59475;52.464;13.590;2022-07-29T06:24:06;5.18;;;2.70;;
71626;SDS011;59475;52.464;13.590;2022-07-29T06:26:32;6.03;;;2.43;;
71626;SDS011;59475;52.464;13.590;2022-07-29T06:28:58;4.03;;;2.42;;
71626;SDS011;59475;52.464;13.590;2022-07-29T06:31:23;7.03;;;2.70;;
71626;SDS011;59475;52.464;13.590;2022-07-29T06:33:49;4.10;;;2.28;;
71626;SDS011;59475;52.464;13.590;2022-07-29T06:36:14;5.73;;;2.80;;
71626;SDS011;59475;52.464;13.590;2022-07-29T06:38:40;4.10;;;2.13;;
71626;SDS011;59475;52.464;13.590;2022-07-29T06:41:05;3.67;;;2.17;;
71626;SDS011;59475;52.464;13.590;2022-07-29T06:43:36;4.70;;;2.40;;
71626;SDS011;59475;52.464;13.590;2022-07-29T06:46:04;4.60;;;2.40;;
71626;SDS011;59475;52.464;13.590;2022-07-29T06:48:31;5.88;;;2.35;;
71626;SDS011;59475;52.464;13.590;2022-07-29T06:50:57;5.20;;;2.40;;
71626;SDS011;59475;52.464;13.590;2022-07-29T06:53:23;8.40;;;2.40;;
71626;SDS011;59475;52.464;13.590;2022-07-29T06:55:49;4.87;;;2.60;;
71626;SDS011;59475;52.464;13.590;2022-07-29T06:58:14;5.87;;;2.07;;
71626;SDS011;59475;52.464;13.590;2022-07-29T07:00:42;3.78;;;2.28;;
71626;SDS011;59475;52.464;13.590;2022-07-29T07:03:08;8.13;;;2.20;;
71626;SDS011;59475;52.464;13.590;2022-07-29T07:05:34;7.53;;;1.90;;
71626;SDS011;59475;52.464;13.590;2022-07-29T07:07:59;5.47;;;2.43;;
71626;SDS011;59475;52.464;13.590;2022-07-29T07:10:24;5.23;;;2.30;;
71626;SDS011;59475;52.464;13.590;2022-07-29T07:12:50;4.37;;;2.23;;
71626;SDS011;59475;52.464;13.590;2022-07-29T07:15:15;7.20;;;2.50;;
71626;SDS011;59475;52.464;13.590;2022-07-29T07:17:40;3.97;;;2.80;;
71626;SDS011;59475;52.464;13.590;2022-07-29T07:20:06;4.05;;;2.00;;
71626;SDS011;59475;52.464;13.590;2022-07-29T07:22:31;9.37;;;2.50;;
71626;SDS011;59475;52.464;13.590;2022-07-29T07:24:57;3.67;;;2.17;;
71626;SDS011;59475;52.464;13.590;2022-07-29T07:27:22;7.90;;;2.27;;
71626;SDS011;59475;52.464;13.590;2022-07-29T07:29:47;4.07;;;2.40;;
71626;SDS011;59475;52.464;13.590;2022-07-29T07:32:13;4.37;;;2.20;;
71626;SDS011;59475;52.464;13.590;2022-07-29T07:34:41;7.25;;;2.08;;
71626;SDS011;59475;52.464;13.590;2022-07-29T07:37:06;6.13;;;2.13;;
71626;SDS011;59475;52.464;13.590;2022-07-29T07:39:32;3.53;;;2.10;;
71626;SDS011;59475;52.464;13.590;2022-07-29T07:41:57;2.88;;;1.98;;
71626;SDS011;59475;52.464;13.590;2022-07-29T07:44:23;5.10;;;1.63;;
71626;SDS011;59475;52.464;13.590;2022-07-29T07:46:48;7.57;;;2.08;;
71626;SDS011;59475;52.464;13.590;2022-07-29T07:49:14;3.40;;;1.60;;
71626;SDS011;59475;52.464;13.590;2022-07-29T07:51:39;4.20;;;2.07;;
71626;SDS011;59475;52.464;13.590;2022-07-29T07:54:05;3.20;;;1.63;;
71626;SDS011;59475;52.464;13.590;2022-07-29T07:56:30;5.60;;;1.90;;
71626;SDS011;59475;52.464;13.590;2022-07-29T07:58:55;4.17;;;1.87;;
71626;SDS011;59475;52.464;13.590;2022-07-29T08:01:21;7.00;;;1.90;;
71626;SDS011;59475;52.464;13.590;2022-07-29T08:03:48;2.95;;;1.98;;
71626;SDS011;59475;52.464;13.590;2022-07-29T08:06:14;3.70;;;1.80;;
71626;SDS011;59475;52.464;13.590;2022-07-29T08:08:39;8.13;;;1.70;;
71626;SDS011;59475;52.464;13.590;2022-07-29T08:11:05;4.07;;;1.80;;
71626;SDS011;59475;52.464;13.590;2022-07-29T08:13:31;5.45;;;1.90;;
71626;SDS011;59475;52.464;13.590;2022-07-29T08:15:57;2.33;;;1.58;;
71626;SDS011;59475;52.464;13.590;2022-07-29T08:18:23;4.27;;;1.80;;
71626;SDS011;59475;52.464;13.590;2022-07-29T08:20:49;4.60;;;1.70;;
71626;SDS011;59475;52.464;13.590;2022-07-29T08:23:15;3.00;;;1.53;;
71626;SDS011;59475;52.464;13.590;2022-07-29T08:25:40;3.50;;;2.03;;
71626;SDS011;59475;52.464;13.590;2022-07-29T08:28:06;3.85;;;1.75;;
71626;SDS011;59475;52.464;13.590;2022-07-29T08:30:32;5.27;;;2.00;;
71626;SDS011;59475;52.464;13.590;2022-07-29T08:32:58;3.05;;;1.60;;
71626;SDS011;59475;52.464;13.590;2022-07-29T08:35:24;4.38;;;2.30;;
71626;SDS011;59475;52.464;13.590;2022-07-29T08:37:50;2.95;;;1.95;;
71626;SDS011;59475;52.464;13.590;2022-07-29T08:40:16;4.22;;;1.70;;
71626;SDS011;59475;52.464;13.590;2022-07-29T08:42:42;2.97;;;1.60;;
71626;SDS011;59475;52.464;13.590;2022-07-29T08:45:08;4.83;;;1.93;;
71626;SDS011;59475;52.464;13.590;2022-07-29T08:47:33;4.90;;;1.60;;
71626;SDS011;59475;52.464;13.590;2022-07-29T08:50:03;8.10;;;1.80;;
71626;SDS011;59475;52.464;13.590;2022-07-29T08:52:29;5.10;;;1.60;;
71626;SDS011;59475;52.464;13.590;2022-07-29T08:54:57;2.35;;;1.45;;
71626;SDS011;59475;52.464;13.590;2022-07-29T08:57:23;2.95;;;1.50;;
71626;SDS011;59475;52.464;13.590;2022-07-29T08:59:49;5.13;;;1.92;;
71626;SDS011;59475;52.464;13.590;2022-07-29T09:02:20;3.97;;;1.70;;
71626;SDS011;59475;52.464;13.590;2022-07-29T09:04:47;2.53;;;1.65;;
71626;SDS011;59475;52.464;13.590;2022-07-29T09:07:17;3.80;;;1.58;;
71626;SDS011;59475;52.464;13.590;2022-07-29T09:09:43;3.33;;;1.60;;
71626;SDS011;59475;52.464;13.590;2022-07-29T09:12:09;2.65;;;1.60;;
71626;SDS011;59475;52.464;13.590;2022-07-29T09:14:37;6.03;;;1.90;;
71626;SDS011;59475;52.464;13.590;2022-07-29T09:17:02;2.65;;;1.25;;
71626;SDS011;59475;52.464;13.590;2022-07-29T09:19:30;4.27;;;1.57;;
71626;SDS011;59475;52.464;13.590;2022-07-29T09:21:57;6.95;;;1.80;;
71626;SDS011;59475;52.464;13.590;2022-07-29T09:24:37;3.97;;;1.63;;
71626;SDS011;59475;52.464;13.590;2022-07-29T09:29:57;4.82;;;2.05;;
71626;SDS011;59475;52.464;13.590;2022-07-29T09:32:24;3.83;;;1.53;;
71626;SDS011;59475;52.464;13.590;2022-07-29T09:34:51;5.70;;;1.60;;
71626;SDS011;59475;52.464;13.590;2022-07-29T09:37:36;6.22;;;1.80;;
71626;SDS011;59475;52.464;13.590;2022-07-29T09:40:01;4.73;;;1.30;;
71626;SDS011;59475;52.464;13.590;2022-07-29T09:42:37;5.55;;;1.85;;
71626;SDS011;59475;52.464;13.590;2022-07-29T09:45:02;2.20;;;1.40;;
71626;SDS011;59475;52.464;13.590;2022-07-29T09:47:39;2.83;;;1.58;;
71626;SDS011;59475;52.464;13.590;2022-07-29T09:50:13;3.15;;;1.67;;
71626;SDS011;59475;52.464;13.590;2022-07-29T09:52:49;3.37;;;1.27;;
71626;SDS011;59475;52.464;13.590;2022-07-29T09:55:16;3.70;;;1.50;;
71626;SDS011;59475;52.464;13.590;2022-07-29T09:57:42;3.70;;;1.40;;
71626;SDS011;59475;52.464;13.590;2022-07-29T10:00:08;1.80;;;1.30;;
71626;SDS011;59475;52.464;13.590;2022-07-29T10:02:38;2.53;;;1.33;;
71626;SDS011;59475;52.464;13.590;2022-07-29T10:05:09;4.68;;;1.50;;
71626;SDS011;59475;52.464;13.590;2022-07-29T10:07:43;2.20;;;1.20;;
71626;SDS011;59475;52.464;13.590;2022-07-29T10:10:20;2.57;;;1.20;;
71626;SDS011;59475;52.464;13.590;2022-07-29T10:13:10;3.78;;;1.55;;
71626;SDS011;59475;52.464;13.590;2022-07-29T10:15:38;2.88;;;1.50;;
71626;SDS011;59475;52.464;13.590;2022-07-29T10:18:08;3.28;;;1.15;;
71626;SDS011;59475;52.464;13.590;2022-07-29T10:20:34;2.33;;;1.30;;
71626;SDS011;59475;52.464;13.590;2022-07-29T10:23:00;4.00;;;1.27;;
71626;SDS011;59475;52.464;13.590;2022-07-29T10:25:27;3.03;;;1.60;;
71626;SDS011;59475;52.464;13.590;2022-07-29T10:27:53;3.35;;;1.38;;
71626;SDS011;59475;52.464;13.590;2022-07-29T10:30:20;2.45;;;1.23;;
71626;SDS011;59475;52.464;13.590;2022-07-29T10:38:47;2.77;;;1.77;;
71626;SDS011;59475;52.464;13.590;2022-07-29T10:43:51;3.75;;;1.42;;
71626;SDS011;59475;52.464;13.590;2022-07-29T10:46:18;2.50;;;1.40;;
71626;SDS011;59475;52.464;13.590;2022-07-29T10:51:50;2.00;;;1.10;;
71626;SDS011;59475;52.464;13.590;2022-07-29T10:54:17;3.42;;;1.42;;
71626;SDS011;59475;52.464;13.590;2022-07-29T10:56:43;4.35;;;1.58;;
71626;SDS011;59475;52.464;13.590;2022-07-29T11:01:47;5.75;;;1.67;;
71626;SDS011;59475;52.464;13.590;2022-07-29T11:04:14;4.28;;;1.55;;
71626;SDS011;59475;52.464;13.590;2022-07-29T11:09:24;3.73;;;1.20;;
71626;SDS011;59475;52.464;13.590;2022-07-29T11:11:49;3.60;;;1.48;;
71626;SDS011;59475;52.464;13.590;2022-07-29T11:14:14;3.20;;;1.30;;
71626;SDS011;59475;52.464;13.590;2022-07-29T11:16:58;3.95;;;1.67;;
71626;SDS011;59475;52.464;13.590;2022-07-29T11:19:27;6.82;;;1.83;;
71626;SDS011;59475;52.464;13.590;2022-07-29T11:21:53;3.28;;;1.75;;
71626;SDS011;59475;52.464;13.590;2022-07-29T11:29:47;3.97;;;1.97;;
71626;SDS011;59475;52.464;13.590;2022-07-29T11:32:17;4.97;;;1.73;;
71626;SDS011;59475;52.464;13.590;2022-07-29T11:34:45;2.88;;;1.65;;
71626;SDS011;59475;52.464;13.590;2022-07-29T11:39:40;5.57;;;1.80;;
71626;SDS011;59475;52.464;13.590;2022-07-29T11:47:46;3.45;;;2.08;;
71626;SDS011;59475;52.464;13.590;2022-07-29T11:50:14;4.32;;;2.10;;
71626;SDS011;59475;52.464;13.590;2022-07-29T11:52:44;3.33;;;1.75;;
71626;SDS011;59475;52.464;13.590;2022-07-29T12:00:30;2.63;;;2.13;;
71626;SDS011;59475;52.464;13.590;2022-07-29T12:03:01;3.50;;;2.20;;
71626;SDS011;59475;52.464;13.590;2022-07-29T12:05:46;5.07;;;1.95;;
71626;SDS011;59475;52.464;13.590;2022-07-29T12:08:18;4.23;;;2.13;;
71626;SDS011;59475;52.464;13.590;2022-07-29T12:10:45;3.03;;;1.90;;
71626;SDS011;59475;52.464;13.590;2022-07-29T12:13:13;2.97;;;2.13;;
71626;SDS011;59475;52.464;13.590;2022-07-29T12:15:39;4.32;;;1.85;;
71626;SDS011;59475;52.464;13.590;2022-07-29T12:18:09;3.90;;;1.90;;
71626;SDS011;59475;52.464;13.590;2022-07-29T12:20:42;5.10;;;2.47;;
71626;SDS011;59475;52.464;13.590;2022-07-29T12:23:09;5.25;;;1.83;;
71626;SDS011;59475;52.464;13.590;2022-07-29T12:25:39;5.53;;;2.08;;
71626;SDS011;59475;52.464;13.590;2022-07-29T12:28:07;4.45;;;1.98;;
71626;SDS011;59475;52.464;13.590;2022-07-29T12:30:38;3.28;;;2.20;;
71626;SDS011;59475;52.464;13.590;2022-07-29T12:33:10;3.53;;;1.63;;
71626;SDS011;59475;52.464;13.590;2022-07-29T12:35:37;3.22;;;2.17;;
71626;SDS011;59475;52.464;13.590;2022-07-29T12:38:03;2.72;;;2.22;;
71626;SDS011;59475;52.464;13.590;2022-07-29T12:40:29;6.20;;;2.00;;
71626;SDS011;59475;52.464;13.590;2022-07-29T12:43:27;3.83;;;2.23;;
71626;SDS011;59475;52.464;13.590;2022-07-29T12:45:48;3.42;;;1.90;;
71626;SDS011;59475;52.464;13.590;2022-07-29T12:48:16;5.95;;;2.13;;
71626;SDS011;59475;52.464;13.590;2022-07-29T12:50:56;4.27;;;1.90;;
71626;SDS011;59475;52.464;13.590;2022-07-29T12:53:24;3.83;;;1.90;;
71626;SDS011;59475;52.464;13.590;2022-07-29T12:55:50;5.18;;;1.90;;
71626;SDS011;59475;52.464;13.590;2022-07-29T13:03:45;3.60;;;2.50;;
71626;SDS011;59475;52.464;13.590;2022-07-29T13:09:22;4.05;;;2.55;;
71626;SDS011;59475;52.464;13.590;2022-07-29T13:14:29;4.22;;;2.28;;
71626;SDS011;59475;52.464;13.590;2022-07-29T13:19:32;4.15;;;2.20;;
71626;SDS011;59475;52.464;13.590;2022-07-29T13:22:02;4.05;;;2.15;;
71626;SDS011;59475;52.464;13.590;2022-07-29T13:24:28;3.42;;;2.25;;
71626;SDS011;59475;52.464;13.590;2022-07-29T13:26:54;3.57;;;2.40;;
71626;SDS011;59475;52.464;13.590;2022-07-29T13:29:19;3.10;;;2.17;;
71626;SDS011;59475;52.464;13.590;2022-07-29T13:31:44;3.27;;;2.13;;
71626;SDS011;59475;52.464;13.590;2022-07-29T13:34:10;7.07;;;2.10;;
71626;SDS011;59475;52.464;13.590;2022-07-29T13:36:35;3.27;;;2.10;;
71626;SDS011;59475;52.464;13.590;2022-07-29T13:39:01;5.50;;;2.60;;
71626;SDS011;59475;52.464;13.590;2022-07-29T13:41:27;5.30;;;2.60;;
71626;SDS011;59475;52.464;13.590;2022-07-29T13:43:53;5.43;;;2.80;;
71626;SDS011;59475;52.464;13.590;2022-07-29T13:46:18;3.13;;;2.30;;
71626;SDS011;59475;52.464;13.590;2022-07-29T13:48:43;5.00;;;2.57;;
71626;SDS011;59475;52.464;13.590;2022-07-29T13:51:09;3.30;;;2.13;;
71626;SDS011;59475;52.464;13.590;2022-07-29T13:53:34;2.57;;;2.13;;
71626;SDS011;59475;52.464;13.590;2022-07-29T13:55:59;4.23;;;2.20;;
71626;SDS011;59475;52.464;13.590;2022-07-29T13:58:25;6.03;;;2.50;;
71626;SDS011;59475;52.464;13.590;2022-07-29T14:00:50;3.60;;;2.50;;
71626;SDS011;59475;52.464;13.590;2022-07-29T14:03:16;4.97;;;2.27;;
71626;SDS011;59475;52.464;13.590;2022-07-29T14:05:41;2.97;;;2.20;;
71626;SDS011;59475;52.464;13.590;2022-07-29T14:08:07;3.80;;;2.30;;
71626;SDS011;59475;52.464;13.590;2022-07-29T14:10:32;6.53;;;2.10;;
71626;SDS011;59475;52.464;13.590;2022-07-29T14:12:58;3.23;;;2.37;;
71626;SDS011;59475;52.464;13.590;2022-07-29T14:15:23;3.92;;;2.15;;
71626;SDS011;59475;52.464;13.590;2022-07-29T14:17:48;3.77;;;2.50;;
71626;SDS011;59475;52.464;13.590;2022-07-29T14:20:14;4.00;;;2.30;;
71626;SDS011;59475;52.464;13.590;2022-07-29T14:22:40;3.45;;;2.22;;
71626;SDS011;59475;52.464;13.590;2022-07-29T14:25:07;4.60;;;2.50;;
71626;SDS011;59475;52.464;13.590;2022-07-29T14:27:33;5.57;;;2.40;;
71626;SDS011;59475;52.464;13.590;2022-07-29T14:29:58;5.33;;;2.30;;
71626;SDS011;59475;52.464;13.590;2022-07-29T14:32:23;2.70;;;2.00;;
71626;SDS011;59475;52.464;13.590;2022-07-29T14:34:49;5.03;;;2.23;;
71626;SDS011;59475;52.464;13.590;2022-07-29T14:37:14;2.60;;;2.20;;
71626;SDS011;59475;52.464;13.590;2022-07-29T14:39:40;4.75;;;2.42;;
71626;SDS011;59475;52.464;13.590;2022-07-29T14:42:05;3.53;;;2.30;;
71626;SDS011;59475;52.464;13.590;2022-07-29T14:44:31;4.73;;;2.10;;
71626;SDS011;59475;52.464;13.590;2022-07-29T14:46:58;2.83;;;2.08;;
71626;SDS011;59475;52.464;13.590;2022-07-29T14:49:25;9.55;;;2.15;;
71626;SDS011;59475;52.464;13.590;2022-07-29T14:51:51;2.95;;;1.77;;
71626;SDS011;59475;52.464;13.590;2022-07-29T14:54:16;6.10;;;2.30;;
71626;SDS011;59475;52.464;13.590;2022-07-29T14:56:42;7.40;;;2.40;;
71626;SDS011;59475;52.464;13.590;2022-07-29T14:59:07;3.17;;;2.17;;
71626;SDS011;59475;52.464;13.590;2022-07-29T15:01:33;5.03;;;2.17;;
71626;SDS011;59475;52.464;13.590;2022-07-29T15:03:58;5.30;;;2.53;;
71626;SDS011;59475;52.464;13.590;2022-07-29T15:06:23;5.00;;;2.60;;
71626;SDS011;59475;52.464;13.590;2022-07-29T15:08:49;2.97;;;2.33;;
71626;SDS011;59475;52.464;13.590;2022-07-29T15:11:14;2.97;;;2.20;;
71626;SDS011;59475;52.464;13.590;2022-07-29T15:13:39;5.07;;;2.23;;
71626;SDS011;59475;52.464;13.590;2022-07-29T15:16:05;4.70;;;2.20;;
71626;SDS011;59475;52.464;13.590;2022-07-29T15:18:31;6.72;;;2.30;;
71626;SDS011;59475;52.464;13.590;2022-07-29T15:20:56;5.43;;;2.60;;
71626;SDS011;59475;52.464;13.590;2022-07-29T15:23:21;6.07;;;1.90;;
71626;SDS011;59475;52.464;13.590;2022-07-29T15:25:47;5.57;;;2.10;;
71626;SDS011;59475;52.464;13.590;2022-07-29T15:28:12;3.30;;;2.08;;
71626;SDS011;59475;52.464;13.590;2022-07-29T15:30:37;2.93;;;1.93;;
71626;SDS011;59475;52.464;13.590;2022-07-29T15:33:06;3.03;;;2.10;;
71626;SDS011;59475;52.464;13.590;2022-07-29T15:35:33;3.03;;;2.10;;
71626;SDS011;59475;52.464;13.590;2022-07-29T15:37:59;3.72;;;1.70;;